Portada
METAR-TAF:

METAR-TAF

Aeroports :

Aeroport Internacional de Tòquio

Tòquio Haneda, Japó

latitud: 35-33N, longitud: 139-47E, altitud: 5 m

Observació

L'informe es va fer fa 30 minuts, a les 13:30 UTC
Vent 6 kt del Sud-Est
Temperatura 16°C
Humitat 51%
Pressió 1020 hPa
Visibilitat 10 km o més
Escasses núvols a una alçada de 4000 ft
Cel ennuvolat a una alçada de 20000 ft

METAR: RJTT 201330Z 14006KT 9999 FEW040 BKN200 16/06 Q1020 NOSIG RMK 1SC040 7AC200 A3015

Hora: 23:00 (14:00 UTC)

Pronòstic

L'informe es va fer fa 2 hores i 52 minuts, a les 11:08 UTC
Pronòstic vàlid del 20 a les 12 UTC al 21 a les 18 UTC
Vent 8 kt del Sud
Visibilitat 10 km o més
Escasses núvols a una alçada de 3000 ft
Evolucionant progressivament
l' 20 a les 17 UTC al 20 a les 19 UTC
Vent 6 kt del Nord/Nord-Oest
Evolucionant progressivament
l' 21 a les 00 UTC al 21 a les 03 UTC
Vent 8 kt del Est

TAF: RJTT 201108Z 2012/2118 18008KT 9999 FEW030 BECMG 2017/2019 34006KT BECMG 2100/2103 08008KT

Observacions i pronòstics meteorològics de més de 4000 aeroports (METAR i TAF).

Les estacions disponibles són els punts grocs i vermells al mapa.

Posi el ratolí al punt desitjat per veure el nom de l'estació.

Feu clic per veure les observacions i els pronòstics meteorològics.

Per canviar el mapa: feu clic els botons verds amb una creu de color negre per apropar; al botó verd amb un guió per allunyar la imatge; o en les fletxes verdes per a mapes adjacents.


METAR-TAF: